createdAt,value
2019-04-09T00:03:16.440Z,19.40
2019-04-09T00:06:48.140Z,21.93
2019-04-09T00:10:15.055Z,17.97
2019-04-09T00:13:51.872Z,21.07
2019-04-09T00:17:11.173Z,24.37
2019-04-09T00:20:30.801Z,24.63
2019-04-09T00:23:49.634Z,27.37
2019-04-09T00:27:08.889Z,19.23
2019-04-09T00:30:27.640Z,21.90
2019-04-09T00:33:46.553Z,20.90
2019-04-09T00:37:04.900Z,20.10
2019-04-09T00:40:23.817Z,18.47
2019-04-09T00:43:42.056Z,26.07
2019-04-09T00:47:01.844Z,24.07
2019-04-09T00:50:21.131Z,23.23
2019-04-09T00:53:39.222Z,21.23
2019-04-09T00:57:04.197Z,27.67
2019-04-09T01:00:21.532Z,21.73
2019-04-09T01:03:40.999Z,25.73
2019-04-09T01:06:59.111Z,21.37
2019-04-09T01:10:18.579Z,30.47
2019-04-09T01:13:38.487Z,23.67
2019-04-09T01:16:57.241Z,29.33
2019-04-09T01:20:15.695Z,23.07
2019-04-09T01:23:35.007Z,21.60
2019-04-09T01:27:09.731Z,29.23
2019-04-09T01:30:42.343Z,22.73
2019-04-09T01:34:20.317Z,20.73
2019-04-09T01:37:53.500Z,19.27
2019-04-09T01:41:49.264Z,22.13
2019-04-09T01:45:27.645Z,22.37
2019-04-09T01:52:45.494Z,27.77
2019-04-09T01:56:23.181Z,25.57
2019-04-09T02:00:01.114Z,24.73
2019-04-09T02:04:03.505Z,23.80
2019-04-09T02:07:39.252Z,26.40
2019-04-09T02:11:24.144Z,24.87
2019-04-09T02:15:01.381Z,31.67
2019-04-09T02:18:42.470Z,39.70
2019-04-09T02:22:38.450Z,32.87
2019-04-09T02:26:22.188Z,36.27
2019-04-09T02:30:21.299Z,40.30
2019-04-09T02:33:56.207Z,41.53
2019-04-09T02:41:37.366Z,37.43
2019-04-09T02:45:12.410Z,38.90
2019-04-09T02:48:55.228Z,35.67
2019-04-09T02:56:45.156Z,35.27
2019-04-09T03:00:25.981Z,32.97
2019-04-09T03:07:38.041Z,41.47
2019-04-09T03:11:22.838Z,38.20
2019-04-09T03:15:00.532Z,44.17
2019-04-09T03:18:34.314Z,45.93
2019-04-09T03:22:25.404Z,42.33
2019-04-09T03:26:03.524Z,41.10
2019-04-09T03:29:41.496Z,41.20
2019-04-09T03:41:16.627Z,45.60
2019-04-09T03:45:02.510Z,46.77
2019-04-09T03:49:06.516Z,42.07
2019-04-09T03:53:09.596Z,38.57
2019-04-09T03:56:44.599Z,41.57
2019-04-09T04:00:30.311Z,40.17
2019-04-09T04:04:34.083Z,38.87
2019-04-09T04:08:25.936Z,42.50
2019-04-09T04:12:10.750Z,44.10
2019-04-09T04:20:04.480Z,49.07
2019-04-09T04:28:02.855Z,38.87
2019-04-09T04:32:06.934Z,47.80
2019-04-09T04:36:10.130Z,39.67
2019-04-09T04:39:54.958Z,42.30
2019-04-09T04:43:39.766Z,41.00
2019-04-09T04:47:24.619Z,54.17
2019-04-09T04:51:10.430Z,36.33
2019-04-09T04:55:13.581Z,53.40
2019-04-09T04:58:58.452Z,38.20
2019-04-09T05:02:43.728Z,46.77
2019-04-09T05:06:29.575Z,35.97
2019-04-09T05:10:32.630Z,45.57
2019-04-09T05:14:17.489Z,47.90
2019-04-09T05:17:44.810Z,37.23
2019-04-09T05:21:42.037Z,41.00
2019-04-09T05:25:19.973Z,52.43
2019-04-09T05:29:03.914Z,39.47
2019-04-09T05:32:38.146Z,40.63
2019-04-09T05:36:21.306Z,34.70
2019-04-09T05:39:59.114Z,37.73
2019-04-09T05:43:39.101Z,32.47
2019-04-09T05:47:16.948Z,44.20
2019-04-09T05:50:58.405Z,27.20
2019-04-09T05:58:36.769Z,24.07
2019-04-09T06:02:15.575Z,25.63
2019-04-09T06:06:11.531Z,24.17
2019-04-09T06:09:29.713Z,32.13
2019-04-09T06:12:49.102Z,26.43
2019-04-09T06:16:07.780Z,34.53
2019-04-09T06:19:27.379Z,31.00
2019-04-09T06:22:45.910Z,23.90
2019-04-09T06:26:04.395Z,29.27
2019-04-09T06:29:24.637Z,28.17
2019-04-09T06:32:51.151Z,31.10
2019-04-09T06:36:10.929Z,29.13
2019-04-09T06:39:36.813Z,27.27
2019-04-09T06:43:03.749Z,28.83
2019-04-09T06:46:48.729Z,27.83
2019-04-09T06:50:29.637Z,26.70
2019-04-09T06:54:14.444Z,30.10
2019-04-09T06:57:59.274Z,22.03
2019-04-09T07:02:01.643Z,25.90
2019-04-09T07:06:04.138Z,25.10
2019-04-09T07:09:49.650Z,33.27
2019-04-09T07:13:53.692Z,27.03
2019-04-09T07:17:33.996Z,13.90
2019-04-09T07:21:11.158Z,29.73
2019-04-09T07:24:36.228Z,24.40
2019-04-09T07:28:02.379Z,27.10
2019-04-09T07:31:31.366Z,28.80
2019-04-09T07:34:57.979Z,26.80
2019-04-09T07:39:02.025Z,26.17
2019-04-09T07:43:06.781Z,25.23
2019-04-09T07:47:12.064Z,24.43
2019-04-09T07:51:07.493Z,22.20
2019-04-09T07:55:11.940Z,27.63
2019-04-09T07:59:21.290Z,27.17
2019-04-09T08:03:19.308Z,24.10
2019-04-09T08:07:06.252Z,27.00
2019-04-09T08:11:08.880Z,19.97
2019-04-09T08:15:14.580Z,25.70
2019-04-09T08:18:58.155Z,25.57
2019-04-09T08:22:24.548Z,29.43
2019-04-09T08:26:21.095Z,27.07
2019-04-09T08:30:15.248Z,28.30
2019-04-09T08:33:44.502Z,27.03
2019-04-09T08:37:40.276Z,23.23
2019-04-09T08:48:48.327Z,25.30
2019-04-09T08:56:28.110Z,20.53
2019-04-09T09:04:20.577Z,27.10
2019-04-09T09:08:00.745Z,28.53
2019-04-09T09:11:32.294Z,30.37
2019-04-09T09:15:25.066Z,25.20
2019-04-09T09:18:54.328Z,23.93
2019-04-09T09:22:48.047Z,28.43
2019-04-09T09:26:36.461Z,26.73
2019-04-09T09:30:53.843Z,26.30
2019-04-09T09:34:41.523Z,25.47
2019-04-09T09:38:46.089Z,29.47
2019-04-09T09:42:49.154Z,23.27
2019-04-09T09:46:38.853Z,23.93
2019-04-09T09:50:39.288Z,24.50
2019-04-09T09:54:42.970Z,29.50
2019-04-09T09:58:49.057Z,42.47
2019-04-09T10:02:50.097Z,26.77
2019-04-09T10:06:35.033Z,23.97
2019-04-09T10:10:19.811Z,19.27
2019-04-09T10:14:05.637Z,21.63
2019-04-09T10:21:29.050Z,26.37
2019-04-09T10:25:06.305Z,25.80
2019-04-09T10:28:43.975Z,25.83
2019-04-09T10:32:40.296Z,24.53
2019-04-09T10:36:18.722Z,20.47
2019-04-09T10:44:20.811Z,18.80
2019-04-09T10:47:58.507Z,20.27
2019-04-09T10:51:41.040Z,25.33
2019-04-09T10:55:04.551Z,29.67
2019-04-09T10:58:42.520Z,32.43
2019-04-09T11:02:24.417Z,27.70
2019-04-09T11:10:23.158Z,17.63
2019-04-09T11:14:18.800Z,32.00
2019-04-09T11:17:57.066Z,29.20
2019-04-09T11:21:54.825Z,35.63
2019-04-09T11:25:40.081Z,26.73
2019-04-09T11:29:37.997Z,32.77
2019-04-09T11:33:15.024Z,20.57
2019-04-09T11:36:53.683Z,25.13
2019-04-09T11:40:37.343Z,32.83
2019-04-09T11:44:14.505Z,27.80
2019-04-09T11:47:52.337Z,27.17
2019-04-09T11:51:33.975Z,27.60
2019-04-09T11:55:29.703Z,22.63
2019-04-09T11:59:06.899Z,26.80
2019-04-09T12:03:03.640Z,23.03
2019-04-09T12:06:41.819Z,21.60
2019-04-09T12:10:22.408Z,22.90
2019-04-09T12:13:59.561Z,28.23
2019-04-09T12:17:45.078Z,25.27
2019-04-09T12:21:29.058Z,24.10
2019-04-09T12:25:26.036Z,20.40
2019-04-09T12:29:09.823Z,25.87
2019-04-09T12:36:47.840Z,25.47
2019-04-09T12:40:25.755Z,24.90
2019-04-09T12:44:03.751Z,28.63
2019-04-09T12:47:56.696Z,16.33
2019-04-09T12:51:56.177Z,26.37
2019-04-09T12:55:25.216Z,19.23
2019-04-09T12:59:14.912Z,22.23
2019-04-09T13:03:13.866Z,23.73
2019-04-09T13:06:47.635Z,32.30
2019-04-09T13:10:51.741Z,26.40
2019-04-09T13:14:48.695Z,21.80
2019-04-09T13:18:44.646Z,24.17
2019-04-09T13:22:23.665Z,25.40
2019-04-09T13:26:14.013Z,22.87
2019-04-09T13:30:07.826Z,25.83
2019-04-09T13:33:49.620Z,23.33
2019-04-09T13:37:34.916Z,30.03
2019-04-09T13:41:07.504Z,29.33
2019-04-09T13:49:10.534Z,21.00
2019-04-09T13:52:56.289Z,25.57
2019-04-09T13:56:41.090Z,23.53
2019-04-09T14:00:25.674Z,28.80
2019-04-09T14:04:11.369Z,31.73
2019-04-09T14:07:54.967Z,32.33
2019-04-09T14:11:38.720Z,27.43
2019-04-09T14:15:05.268Z,35.07
2019-04-09T14:18:12.314Z,31.03
2019-04-09T14:21:20.184Z,28.27
2019-04-09T14:24:45.317Z,21.10
2019-04-09T14:27:52.302Z,30.27
2019-04-09T14:31:38.061Z,34.43
2019-04-09T14:35:22.490Z,30.73
2019-04-09T14:38:48.448Z,34.77
2019-04-09T14:42:14.599Z,40.67
2019-04-09T14:46:00.588Z,28.00
2019-04-09T14:49:45.220Z,34.13
2019-04-09T14:57:18.955Z,33.60
2019-04-09T15:00:45.650Z,38.40
2019-04-09T15:04:30.054Z,27.90
2019-04-09T15:07:56.596Z,27.93
2019-04-09T15:11:03.560Z,39.27
2019-04-09T15:14:10.468Z,33.33
2019-04-09T15:17:37.688Z,41.37
2019-04-09T15:21:14.932Z,32.53
2019-04-09T15:24:33.157Z,32.53
2019-04-09T15:27:40.063Z,32.33
2019-04-09T15:30:47.949Z,35.30
2019-04-09T15:33:54.911Z,34.97
2019-04-09T15:37:21.161Z,37.47
2019-04-09T15:40:47.095Z,28.30
2019-04-09T15:44:13.956Z,33.17
2019-04-09T15:47:58.947Z,39.80
2019-04-09T15:51:43.654Z,36.63
2019-04-09T15:55:12.206Z,41.30
2019-04-09T15:58:55.071Z,31.37
2019-04-09T16:02:40.671Z,34.37
2019-04-09T16:06:25.407Z,36.10
2019-04-09T16:09:51.922Z,33.90
2019-04-09T16:13:37.037Z,29.13
2019-04-09T16:17:03.087Z,38.40
2019-04-09T16:20:40.908Z,34.00
2019-04-09T16:23:59.090Z,35.60
2019-04-09T16:27:17.819Z,38.40
2019-04-09T16:30:37.630Z,37.50
2019-04-09T16:34:02.518Z,42.27
2019-04-09T16:37:17.648Z,43.20
2019-04-09T16:40:37.249Z,43.07
2019-04-09T16:43:55.696Z,56.63
2019-04-09T16:47:13.812Z,49.73
2019-04-09T16:50:33.036Z,41.70
2019-04-09T16:53:39.964Z,45.93
2019-04-09T16:57:05.923Z,48.13
2019-04-09T17:04:25.648Z,48.57
2019-04-09T17:08:05.397Z,49.10
2019-04-09T17:11:30.743Z,48.80
2019-04-09T17:14:50.207Z,46.70
2019-04-09T17:18:08.523Z,55.00
2019-04-09T17:21:27.631Z,50.07
2019-04-09T17:24:46.169Z,48.50
2019-04-09T17:27:53.153Z,50.57
2019-04-09T17:31:21.004Z,49.90
2019-04-09T17:42:38.423Z,49.20
2019-04-09T17:46:23.476Z,52.90
2019-04-09T17:50:08.094Z,51.47
2019-04-09T17:53:35.068Z,45.90
2019-04-09T17:57:19.879Z,56.97
2019-04-09T18:01:04.926Z,48.83
2019-04-09T18:04:53.068Z,48.70
2019-04-09T18:16:02.969Z,53.63
2019-04-09T18:19:21.051Z,51.83
2019-04-09T18:22:47.400Z,54.07
2019-04-09T18:26:32.639Z,46.77
2019-04-09T18:30:18.101Z,45.33
2019-04-09T18:34:03.047Z,53.97
2019-04-09T18:37:30.156Z,54.70
2019-04-09T18:41:14.544Z,49.60
2019-04-09T18:44:40.654Z,59.30
2019-04-09T18:48:06.639Z,50.33
2019-04-09T18:51:51.650Z,53.23
2019-04-09T18:55:18.167Z,47.63
2019-04-09T18:58:45.068Z,63.07
2019-04-09T19:02:29.307Z,50.30
2019-04-09T19:05:55.421Z,57.13
2019-04-09T19:09:22.127Z,55.47
2019-04-09T19:13:09.614Z,50.50
2019-04-09T19:16:44.062Z,52.77
2019-04-09T19:20:03.516Z,49.80
2019-04-09T19:23:22.523Z,54.80
2019-04-09T19:26:29.682Z,57.83
2019-04-09T19:29:37.127Z,53.20
2019-04-09T19:33:03.362Z,58.33
2019-04-09T19:36:48.477Z,49.70
2019-04-09T19:40:34.055Z,57.47
2019-04-09T19:43:59.000Z,50.00
2019-04-09T19:47:25.159Z,50.90
2019-04-09T19:51:10.265Z,52.13
2019-04-09T19:54:36.467Z,56.63
2019-04-09T19:58:02.157Z,44.47
2019-04-09T20:01:46.221Z,48.73
2019-04-09T20:04:53.791Z,48.47
2019-04-09T20:12:13.204Z,22.50
2019-04-09T20:15:50.613Z,18.37
2019-04-09T20:19:09.094Z,16.90
2019-04-09T20:22:16.072Z,13.33
2019-04-09T20:25:42.251Z,13.67
2019-04-09T20:28:49.206Z,13.10
2019-04-09T20:32:15.213Z,11.90
2019-04-09T20:35:48.434Z,12.77
2019-04-09T20:39:35.561Z,11.50
2019-04-09T20:42:55.047Z,12.20
2019-04-09T20:46:40.131Z,10.63
2019-04-09T20:49:47.024Z,14.43
2019-04-09T20:53:13.644Z,9.53
2019-04-09T20:56:58.026Z,14.63
2019-04-09T21:04:34.352Z,15.73
2019-04-09T21:08:00.563Z,11.30
2019-04-09T21:11:46.492Z,15.57
2019-04-09T21:15:30.672Z,11.43
2019-04-09T21:18:56.647Z,18.03
2019-04-09T21:22:22.685Z,12.43
2019-04-09T21:25:49.271Z,15.97
2019-04-09T21:29:34.891Z,13.97
2019-04-09T21:33:19.352Z,19.70
2019-04-09T21:37:04.029Z,12.13
2019-04-09T21:40:29.899Z,11.77
2019-04-09T21:43:56.371Z,17.20
2019-04-09T21:47:40.961Z,13.40
2019-04-09T21:50:59.982Z,13.37
2019-04-09T21:54:18.182Z,16.83
2019-04-09T21:57:36.443Z,15.60
2019-04-09T22:00:55.100Z,11.10
2019-04-09T22:04:13.243Z,16.87
2019-04-09T22:07:32.761Z,16.90
2019-04-09T22:10:51.150Z,18.67
2019-04-09T22:14:10.166Z,11.60
2019-04-09T22:17:28.637Z,14.50
2019-04-09T22:20:47.693Z,12.90
2019-04-09T22:24:07.628Z,18.03
2019-04-09T22:27:26.619Z,14.20
2019-04-09T22:30:45.487Z,14.13
2019-04-09T22:34:04.109Z,17.70
2019-04-09T22:37:22.904Z,17.23
2019-04-09T22:40:41.393Z,14.63
2019-04-09T22:44:00.667Z,11.37
2019-04-09T22:47:20.460Z,15.93
2019-04-09T22:50:39.900Z,12.50
2019-04-09T22:53:58.317Z,9.83
2019-04-09T22:57:16.521Z,10.40
2019-04-09T23:00:54.901Z,17.10
2019-04-09T23:08:28.077Z,15.30
2019-04-09T23:11:47.495Z,12.90
2019-04-09T23:15:08.760Z,15.87
2019-04-09T23:18:28.707Z,10.73
2019-04-09T23:21:47.890Z,12.73
2019-04-09T23:25:06.765Z,13.33
2019-04-09T23:28:25.528Z,15.57
2019-04-09T23:31:43.685Z,13.17
2019-04-09T23:35:03.080Z,17.20
2019-04-09T23:38:21.665Z,12.10
2019-04-09T23:41:40.322Z,13.27
2019-04-09T23:44:59.724Z,14.30
2019-04-09T23:48:18.927Z,16.63
2019-04-09T23:51:37.606Z,17.57
2019-04-09T23:54:56.544Z,10.53
2019-04-09T23:58:15.435Z,16.70
